createdAt,value
2023-06-29T00:02:00.336Z,101489.53
2023-06-29T00:04:27.699Z,101478.94
2023-06-29T00:06:56.622Z,101479.81
2023-06-29T00:09:24.069Z,101488.66
2023-06-29T00:11:51.112Z,101489.63
2023-06-29T00:14:18.115Z,101486.09
2023-06-29T00:16:45.212Z,101485.19
2023-06-29T00:19:16.202Z,101479.03
2023-06-29T00:21:43.583Z,101484.31
2023-06-29T00:24:13.502Z,101486.09
2023-06-29T00:26:40.637Z,101481.69
2023-06-29T00:29:07.928Z,101488.75
2023-06-29T00:31:36.496Z,101487.00
2023-06-29T00:34:03.655Z,101489.66
2023-06-29T00:36:33.006Z,101479.06
2023-06-29T00:39:00.431Z,101476.41
2023-06-29T00:41:27.536Z,101481.75
2023-06-29T00:43:54.530Z,101472.03
2023-06-29T00:46:21.890Z,101469.34
2023-06-29T00:48:49.249Z,101477.28
2023-06-29T00:51:17.605Z,101474.69
2023-06-29T00:53:45.141Z,101479.97
2023-06-29T00:56:14.297Z,101468.50
2023-06-29T00:58:42.131Z,101466.75
2023-06-29T01:01:09.257Z,101471.16
2023-06-29T01:03:37.850Z,101465.91
2023-06-29T01:06:06.925Z,101471.19
2023-06-29T01:08:37.052Z,101473.84
2023-06-29T01:11:07.599Z,101474.72
2023-06-29T01:13:37.479Z,101472.09
2023-06-29T01:16:05.115Z,101471.22
2023-06-29T01:18:33.038Z,101473.84
2023-06-29T01:21:00.428Z,101472.09
2023-06-29T01:23:28.420Z,101466.78
2023-06-29T01:25:56.336Z,101475.59
2023-06-29T01:28:29.864Z,101472.06
2023-06-29T01:30:57.304Z,101472.97
2023-06-29T01:33:26.627Z,101465.03
2023-06-29T01:35:57.730Z,101465.94
2023-06-29T01:38:31.890Z,101470.34
2023-06-29T01:41:02.637Z,101467.66
2023-06-29T01:43:31.274Z,101465.91
2023-06-29T01:45:58.689Z,101462.41
2023-06-29T01:48:26.889Z,101465.00
2023-06-29T01:50:54.562Z,101462.38
2023-06-29T01:53:21.642Z,101460.66
2023-06-29T01:55:48.695Z,101465.03
2023-06-29T01:58:15.805Z,101455.34
2023-06-29T02:00:42.738Z,101449.19
2023-06-29T02:03:09.964Z,101455.34
2023-06-29T02:05:37.078Z,101453.59
2023-06-29T02:08:04.280Z,101449.19
2023-06-29T02:10:31.321Z,101453.59
2023-06-29T02:12:58.449Z,101454.47
2023-06-29T02:15:27.468Z,101452.69
2023-06-29T02:17:58.097Z,101454.47
2023-06-29T02:20:36.444Z,101450.06
2023-06-29T02:23:03.632Z,101444.75
2023-06-29T02:25:30.621Z,101443.91
2023-06-29T02:27:57.685Z,101444.78
2023-06-29T02:30:24.621Z,101442.13
2023-06-29T02:32:54.449Z,101442.13
2023-06-29T02:35:26.400Z,101444.75
2023-06-29T02:37:54.151Z,101440.38
2023-06-29T02:40:21.393Z,101445.66
2023-06-29T02:42:48.408Z,101440.38
2023-06-29T02:45:15.896Z,101444.75
2023-06-29T02:47:43.015Z,101447.41
2023-06-29T02:50:10.718Z,101450.94
2023-06-29T02:52:44.525Z,101436.81
2023-06-29T02:55:11.813Z,101445.63
2023-06-29T02:57:39.942Z,101446.53
2023-06-29T03:00:09.517Z,101441.25
2023-06-29T03:02:56.686Z,101444.75
2023-06-29T03:05:36.960Z,101447.41
2023-06-29T03:08:05.148Z,101448.28
2023-06-29T03:10:32.145Z,101446.50
2023-06-29T03:12:59.187Z,101450.00
2023-06-29T03:15:26.231Z,101458.81
2023-06-29T03:17:53.340Z,101448.25
2023-06-29T03:20:20.417Z,101454.38
2023-06-29T03:22:47.914Z,101457.03
2023-06-29T03:25:14.909Z,101458.78
2023-06-29T03:27:41.945Z,101460.56
2023-06-29T03:30:09.192Z,101448.22
2023-06-29T03:32:36.207Z,101447.34
2023-06-29T03:35:03.412Z,101453.50
2023-06-29T03:37:30.421Z,101457.00
2023-06-29T03:39:57.443Z,101457.00
2023-06-29T03:42:24.554Z,101457.88
2023-06-29T03:44:51.674Z,101460.47
2023-06-29T03:47:19.616Z,101459.56
2023-06-29T03:49:47.075Z,101464.84
2023-06-29T03:52:14.315Z,101467.50
2023-06-29T03:54:41.419Z,101466.59
2023-06-29T03:57:08.528Z,101477.13
2023-06-29T03:59:35.566Z,101479.78
2023-06-29T04:02:02.912Z,101482.41
2023-06-29T04:04:30.624Z,101484.16
2023-06-29T04:06:57.789Z,101485.03
2023-06-29T04:09:24.930Z,101483.25
2023-06-29T04:11:51.850Z,101475.34
2023-06-29T04:14:18.867Z,101479.72
2023-06-29T04:16:45.815Z,101485.88
2023-06-29T04:19:15.300Z,101485.84
2023-06-29T04:21:44.079Z,101489.38
2023-06-29T04:24:11.092Z,101485.88
2023-06-29T04:26:40.111Z,101478.81
2023-06-29T04:29:07.624Z,101483.22
2023-06-29T04:31:35.016Z,101481.44
2023-06-29T04:34:04.228Z,101478.81
2023-06-29T04:36:31.460Z,101485.84
2023-06-29T04:38:58.639Z,101476.19
2023-06-29T04:41:32.723Z,101472.66
2023-06-29T04:44:00.393Z,101482.31
2023-06-29T04:46:29.453Z,101480.56
2023-06-29T04:48:56.937Z,101480.59
2023-06-29T04:51:24.182Z,101480.59
2023-06-29T04:53:51.272Z,101481.47
2023-06-29T04:56:18.328Z,101481.47
2023-06-29T04:58:45.348Z,101481.47
2023-06-29T05:01:12.495Z,101480.59
2023-06-29T05:03:39.596Z,101477.09
2023-06-29T05:06:06.802Z,101483.22
2023-06-29T05:08:33.783Z,101482.34
2023-06-29T05:11:00.953Z,101484.13
2023-06-29T05:13:28.064Z,101484.19
2023-06-29T05:15:55.159Z,101489.47
2023-06-29T05:18:22.244Z,101485.09
2023-06-29T05:20:49.159Z,101486.88
2023-06-29T05:23:16.242Z,101482.44
2023-06-29T05:25:43.900Z,101480.75
2023-06-29T05:28:11.161Z,101484.28
2023-06-29T05:30:38.167Z,101480.75
2023-06-29T05:33:05.811Z,101480.75
2023-06-29T05:35:34.708Z,101471.97
2023-06-29T05:38:01.904Z,101477.28
2023-06-29T05:40:29.078Z,101483.44
2023-06-29T05:42:56.167Z,101481.69
2023-06-29T05:45:23.290Z,101484.34
2023-06-29T05:47:50.352Z,101477.31
2023-06-29T05:50:17.817Z,101491.41
2023-06-29T05:52:44.877Z,101491.44
2023-06-29T05:55:12.031Z,101493.19
2023-06-29T05:57:39.602Z,101490.56
2023-06-29T06:00:12.440Z,101488.81
2023-06-29T06:02:39.766Z,101493.22
2023-06-29T06:05:08.734Z,101482.66
2023-06-29T06:07:36.565Z,101486.19
2023-06-29T06:10:04.675Z,101487.94
2023-06-29T06:12:32.256Z,101494.97
2023-06-29T06:14:59.605Z,101489.75
2023-06-29T06:17:27.123Z,101487.97
2023-06-29T06:19:55.291Z,101494.13
2023-06-29T06:22:22.339Z,101492.38
2023-06-29T06:24:49.392Z,101493.22
2023-06-29T06:27:16.448Z,101496.72
2023-06-29T06:29:43.485Z,101499.34
2023-06-29T06:32:12.237Z,101498.44
2023-06-29T06:34:39.465Z,101498.41
2023-06-29T06:37:07.146Z,101502.81
2023-06-29T06:39:34.256Z,101507.19
2023-06-29T06:42:01.473Z,101510.72
2023-06-29T06:44:29.291Z,101518.53
2023-06-29T06:46:56.473Z,101516.72
2023-06-29T06:49:24.017Z,101521.94
2023-06-29T06:51:51.124Z,101513.00
2023-06-29T06:54:20.909Z,101512.00
2023-06-29T06:56:49.954Z,101504.00
2023-06-29T06:59:17.118Z,101508.31
2023-06-29T07:01:44.598Z,101508.22
2023-06-29T07:04:12.441Z,101511.66
2023-06-29T07:06:39.552Z,101516.88
2023-06-29T07:09:08.868Z,101518.50
2023-06-29T07:11:38.441Z,101512.13
2023-06-29T07:14:06.146Z,101511.13
2023-06-29T07:16:33.283Z,101494.97
2023-06-29T07:21:37.777Z,101501.84
2023-06-29T07:24:08.181Z,101501.69
2023-06-29T07:26:35.934Z,101509.56
2023-06-29T07:29:04.836Z,101496.91
2023-06-29T07:31:34.854Z,101500.28
2023-06-29T07:34:01.991Z,101496.56
2023-06-29T07:36:30.542Z,101502.59
2023-06-29T07:38:58.058Z,101497.16
2023-06-29T07:41:25.240Z,101493.63
2023-06-29T07:43:56.216Z,101495.31
2023-06-29T07:46:24.074Z,101496.97
2023-06-29T07:48:52.055Z,101499.41
2023-06-29T07:51:19.235Z,101495.75
2023-06-29T07:53:46.587Z,101496.50
2023-06-29T07:56:13.787Z,101497.19
2023-06-29T07:58:40.867Z,101499.75
2023-06-29T08:01:08.094Z,101489.66
2023-06-29T08:03:47.329Z,101500.06
2023-06-29T08:11:19.996Z,101489.56
2023-06-29T08:13:47.081Z,101492.88
2023-06-29T08:16:15.589Z,101490.09
2023-06-29T08:18:42.841Z,101487.84
2023-06-29T08:21:11.956Z,101478.66
2023-06-29T08:23:39.079Z,101482.66
2023-06-29T08:26:06.341Z,101484.09
2023-06-29T08:28:33.528Z,101485.59
2023-06-29T08:31:00.569Z,101480.72
2023-06-29T08:33:27.836Z,101481.31
2023-06-29T08:35:55.099Z,101484.38
2023-06-29T08:38:22.493Z,101478.97
2023-06-29T08:40:49.821Z,101482.25
2023-06-29T08:43:17.316Z,101473.94
2023-06-29T08:45:44.893Z,101482.31
2023-06-29T08:48:13.522Z,101482.03
2023-06-29T08:50:44.980Z,101486.81
2023-06-29T08:53:13.107Z,101477.56
2023-06-29T08:55:40.895Z,101475.66
2023-06-29T08:58:07.970Z,101475.13
2023-06-29T09:00:36.478Z,101477.19
2023-06-29T09:03:04.354Z,101473.00
2023-06-29T09:05:31.500Z,101466.28
2023-06-29T09:07:58.586Z,101470.16
2023-06-29T09:10:25.740Z,101460.22
2023-06-29T09:12:54.011Z,101467.53
2023-06-29T09:15:21.708Z,101462.50
2023-06-29T09:17:55.189Z,101465.03
2023-06-29T09:20:23.291Z,101474.22
2023-06-29T09:22:53.438Z,101467.75
2023-06-29T09:25:33.064Z,101457.53
2023-06-29T09:28:04.932Z,101469.13
2023-06-29T09:30:36.676Z,101455.31
2023-06-29T09:33:08.195Z,101467.56
2023-06-29T09:35:36.466Z,101457.84
2023-06-29T09:38:04.366Z,101458.63
2023-06-29T09:40:31.526Z,101463.34
2023-06-29T09:43:03.082Z,101458.50
2023-06-29T09:45:32.294Z,101462.88
2023-06-29T09:50:29.328Z,101454.38
2023-06-29T09:52:56.947Z,101460.66
2023-06-29T09:55:31.538Z,101452.91
2023-06-29T09:57:59.339Z,101460.63
2023-06-29T10:00:29.251Z,101457.66
2023-06-29T10:02:57.326Z,101456.56
2023-06-29T10:05:24.626Z,101459.47
2023-06-29T10:07:54.544Z,101460.06
2023-06-29T10:10:21.770Z,101460.56
2023-06-29T10:12:52.222Z,101465.63
2023-06-29T10:15:19.834Z,101464.66
2023-06-29T10:18:07.194Z,101460.44
2023-06-29T10:20:36.662Z,101464.06
2023-06-29T10:23:04.966Z,101461.44
2023-06-29T10:25:33.776Z,101462.00
2023-06-29T10:28:01.529Z,101459.53
2023-06-29T10:30:28.823Z,101462.88
2023-06-29T10:32:56.110Z,101460.56
2023-06-29T10:35:27.117Z,101458.41
2023-06-29T10:37:57.538Z,101455.56
2023-06-29T10:40:27.421Z,101467.47
2023-06-29T10:42:57.494Z,101463.50
2023-06-29T10:45:24.578Z,101472.09
2023-06-29T10:47:57.866Z,101461.69
2023-06-29T10:50:41.165Z,101455.13
2023-06-29T10:53:12.269Z,101456.78
2023-06-29T10:55:40.786Z,101455.06
2023-06-29T10:58:30.390Z,101451.81
2023-06-29T11:00:57.692Z,101455.75
2023-06-29T11:03:24.886Z,101463.13
2023-06-29T11:05:53.135Z,101453.25
2023-06-29T11:08:23.863Z,101466.88
2023-06-29T11:10:51.927Z,101455.91
2023-06-29T11:13:19.427Z,101471.09
2023-06-29T11:15:52.829Z,101467.94
2023-06-29T11:18:20.729Z,101467.00
2023-06-29T11:20:47.961Z,101465.38
2023-06-29T11:23:15.095Z,101466.13
2023-06-29T11:25:42.035Z,101464.19
2023-06-29T11:28:09.120Z,101459.09
2023-06-29T11:30:39.655Z,101465.38
2023-06-29T11:33:19.946Z,101469.97
2023-06-29T11:35:56.855Z,101470.34
2023-06-29T11:38:23.864Z,101461.72
2023-06-29T11:40:50.876Z,101462.84
2023-06-29T11:43:19.927Z,101468.28
2023-06-29T11:45:49.693Z,101462.72
2023-06-29T11:48:16.975Z,101464.25
2023-06-29T11:50:44.027Z,101463.81
2023-06-29T11:53:13.215Z,101450.34
2023-06-29T11:55:40.396Z,101454.31
2023-06-29T11:58:07.441Z,101450.75
2023-06-29T12:00:35.093Z,101453.94
2023-06-29T12:03:09.530Z,101446.63
2023-06-29T12:05:43.408Z,101452.06
2023-06-29T12:08:11.257Z,101436.06
2023-06-29T12:10:39.729Z,101432.25
2023-06-29T12:13:10.028Z,101444.13
2023-06-29T12:15:37.195Z,101436.84
2023-06-29T12:18:09.006Z,101436.09
2023-06-29T12:20:41.086Z,101444.03
2023-06-29T12:23:08.820Z,101440.00
2023-06-29T12:25:42.853Z,101438.84
2023-06-29T12:28:20.363Z,101419.63
2023-06-29T12:30:47.930Z,101437.81
2023-06-29T12:33:15.455Z,101435.59
2023-06-29T12:35:44.198Z,101439.19
2023-06-29T12:38:12.889Z,101430.88
2023-06-29T12:40:39.964Z,101430.78
2023-06-29T12:43:07.406Z,101428.53
2023-06-29T12:45:35.449Z,101430.72
2023-06-29T12:48:04.959Z,101434.56
2023-06-29T12:50:32.395Z,101435.69
2023-06-29T12:52:59.585Z,101427.75
2023-06-29T12:55:26.801Z,101425.13
2023-06-29T12:57:54.212Z,101429.44
2023-06-29T13:00:22.065Z,101427.97
2023-06-29T13:02:49.391Z,101429.28
2023-06-29T13:05:16.562Z,101424.47
2023-06-29T13:07:44.521Z,101427.47
2023-06-29T13:10:13.571Z,101427.91
2023-06-29T13:12:42.307Z,101429.56
2023-06-29T13:15:09.631Z,101423.94
2023-06-29T13:17:36.851Z,101421.72
2023-06-29T13:20:04.629Z,101416.91
2023-06-29T13:22:32.545Z,101417.78
2023-06-29T13:25:03.601Z,101420.44
2023-06-29T13:27:30.747Z,101406.38
2023-06-29T13:29:57.982Z,101410.81
2023-06-29T13:32:25.242Z,101413.53
2023-06-29T13:34:52.428Z,101416.50
2023-06-29T13:37:20.123Z,101428.28
2023-06-29T13:39:49.199Z,101423.44
2023-06-29T13:42:17.217Z,101419.25
2023-06-29T13:44:44.910Z,101418.88
2023-06-29T13:47:18.389Z,101419.63
2023-06-29T13:49:45.803Z,101416.25
2023-06-29T13:52:13.153Z,101415.59
2023-06-29T13:54:41.658Z,101416.31
2023-06-29T13:57:08.699Z,101420.81
2023-06-29T13:59:35.910Z,101418.16
2023-06-29T14:02:03.025Z,101417.06
2023-06-29T14:04:30.252Z,101421.78
2023-06-29T14:06:57.652Z,101419.88
2023-06-29T14:09:27.215Z,101415.03
2023-06-29T14:11:54.298Z,101421.06
2023-06-29T14:14:21.355Z,101422.00
2023-06-29T14:16:48.458Z,101415.00
2023-06-29T14:19:15.595Z,101427.72
2023-06-29T14:21:44.923Z,101426.63
2023-06-29T14:24:12.041Z,101418.16
2023-06-29T14:26:39.135Z,101412.31
2023-06-29T14:29:06.577Z,101419.22
2023-06-29T14:31:33.648Z,101429.34
2023-06-29T14:34:01.350Z,101421.84
2023-06-29T14:36:28.656Z,101419.53
2023-06-29T14:38:55.829Z,101414.81
2023-06-29T14:41:22.872Z,101423.88
2023-06-29T14:43:51.581Z,101424.56
2023-06-29T14:46:18.695Z,101426.22
2023-06-29T14:48:46.739Z,101422.31
2023-06-29T14:51:14.068Z,101413.84
2023-06-29T14:53:41.141Z,101426.00
2023-06-29T14:56:09.037Z,101426.44
2023-06-29T14:58:36.371Z,101430.94
2023-06-29T15:01:03.965Z,101432.13
2023-06-29T15:03:31.148Z,101432.06
2023-06-29T15:05:58.402Z,101436.22
2023-06-29T15:08:25.446Z,101438.44
2023-06-29T15:10:52.610Z,101440.72
2023-06-29T15:13:19.641Z,101440.53
2023-06-29T15:15:46.988Z,101436.59
2023-06-29T15:18:15.177Z,101431.22
2023-06-29T15:20:42.368Z,101429.78
2023-06-29T15:23:09.690Z,101431.19
2023-06-29T15:25:38.507Z,101428.41
2023-06-29T15:28:07.332Z,101425.44
2023-06-29T15:30:47.312Z,101418.81
2023-06-29T15:33:19.568Z,101417.94
2023-06-29T15:35:46.851Z,101423.19
2023-06-29T15:38:14.235Z,101429.53
2023-06-29T15:40:41.611Z,101428.81
2023-06-29T15:43:08.673Z,101431.03
2023-06-29T15:45:35.912Z,101425.00
2023-06-29T15:48:03.060Z,101419.34
2023-06-29T15:50:30.268Z,101422.75
2023-06-29T15:52:57.439Z,101420.63
2023-06-29T15:55:25.023Z,101418.78
2023-06-29T15:57:52.030Z,101413.88
2023-06-29T16:00:19.349Z,101407.44
2023-06-29T16:02:46.451Z,101415.63
2023-06-29T16:05:13.569Z,101419.19
2023-06-29T16:07:40.782Z,101424.72
2023-06-29T16:10:08.792Z,101414.75
2023-06-29T16:12:36.189Z,101416.31
2023-06-29T16:15:03.285Z,101415.44
2023-06-29T16:17:30.433Z,101418.91
2023-06-29T16:19:57.844Z,101407.38
2023-06-29T16:22:24.982Z,101413.44
2023-06-29T16:24:52.036Z,101412.38
2023-06-29T16:27:19.085Z,101416.84
2023-06-29T16:29:46.331Z,101412.75
2023-06-29T16:32:13.737Z,101413.00
2023-06-29T16:34:40.908Z,101409.84
2023-06-29T16:37:10.214Z,101414.81
2023-06-29T16:39:37.684Z,101423.63
2023-06-29T16:42:05.074Z,101422.13
2023-06-29T16:44:32.072Z,101410.25
2023-06-29T16:46:59.196Z,101411.66
2023-06-29T16:49:26.969Z,101408.72
2023-06-29T16:51:54.310Z,101408.56
2023-06-29T16:54:21.585Z,101402.72
2023-06-29T16:56:48.831Z,101415.47
2023-06-29T16:59:15.899Z,101403.06
2023-06-29T17:01:43.046Z,101410.38
2023-06-29T17:04:10.253Z,101419.38
2023-06-29T17:06:37.256Z,101427.22
2023-06-29T17:09:04.281Z,101418.94
2023-06-29T17:11:31.409Z,101420.59
2023-06-29T17:13:59.991Z,101428.72
2023-06-29T17:16:27.509Z,101432.97
2023-06-29T17:18:54.630Z,101437.56
2023-06-29T17:21:22.272Z,101434.13
2023-06-29T17:23:54.006Z,101440.31
2023-06-29T17:26:21.359Z,101433.22
2023-06-29T17:28:48.393Z,101445.31
2023-06-29T17:31:15.439Z,101433.16
2023-06-29T17:33:54.037Z,101433.88
2023-06-29T17:36:22.352Z,101433.16
2023-06-29T17:38:49.407Z,101435.59
2023-06-29T17:41:18.471Z,101439.94
2023-06-29T17:43:45.546Z,101442.81
2023-06-29T17:46:13.901Z,101446.06
2023-06-29T17:48:40.981Z,101442.75
2023-06-29T17:51:18.016Z,101446.97
2023-06-29T17:53:46.579Z,101444.81
2023-06-29T17:56:15.741Z,101455.94
2023-06-29T17:58:46.386Z,101448.34
2023-06-29T18:01:13.950Z,101451.09
2023-06-29T18:03:41.299Z,101453.81
2023-06-29T18:06:08.926Z,101450.19
2023-06-29T18:08:36.020Z,101453.91
2023-06-29T18:11:03.737Z,101454.69
2023-06-29T18:13:31.201Z,101450.25
2023-06-29T18:15:58.250Z,101454.09
2023-06-29T18:18:25.251Z,101451.81
2023-06-29T18:20:52.236Z,101456.38
2023-06-29T18:23:19.287Z,101456.38
2023-06-29T18:25:46.758Z,101465.72
2023-06-29T18:28:13.883Z,101454.25
2023-06-29T18:30:40.947Z,101449.66
2023-06-29T18:33:07.925Z,101457.47
2023-06-29T18:35:35.013Z,101474.25
2023-06-29T18:38:01.911Z,101457.75
2023-06-29T18:40:29.408Z,101469.16
2023-06-29T18:42:56.476Z,101461.16
2023-06-29T18:45:26.182Z,101468.69
2023-06-29T18:47:53.462Z,101468.50
2023-06-29T18:50:20.468Z,101469.59
2023-06-29T18:52:47.830Z,101465.88
2023-06-29T18:55:14.866Z,101466.00
2023-06-29T18:57:41.807Z,101463.44
2023-06-29T19:00:09.128Z,101474.25
2023-06-29T19:02:36.260Z,101479.91
2023-06-29T19:05:04.336Z,101484.38
2023-06-29T19:07:31.389Z,101484.50
2023-06-29T19:09:58.519Z,101502.19
2023-06-29T19:12:25.556Z,101495.09
2023-06-29T19:14:54.405Z,101501.28
2023-06-29T19:17:22.246Z,101505.25
2023-06-29T19:19:49.332Z,101519.50
2023-06-29T19:22:16.981Z,101516.03
2023-06-29T19:24:44.113Z,101519.56
2023-06-29T19:27:11.178Z,101520.47
2023-06-29T19:29:38.134Z,101529.59
2023-06-29T19:32:06.862Z,101536.84
2023-06-29T19:34:34.899Z,101537.84
2023-06-29T19:37:04.252Z,101548.53
2023-06-29T19:39:31.493Z,101541.59
2023-06-29T19:41:58.733Z,101543.44
2023-06-29T19:44:25.664Z,101543.63
2023-06-29T19:46:52.871Z,101544.56
2023-06-29T19:49:20.331Z,101544.66
2023-06-29T19:51:47.280Z,101548.19
2023-06-29T19:54:14.223Z,101543.84
2023-06-29T19:56:41.375Z,101557.22
2023-06-29T19:59:09.659Z,101552.91
2023-06-29T20:01:36.954Z,101550.28
2023-06-29T20:04:03.981Z,101552.97
2023-06-29T20:06:31.393Z,101551.28
2023-06-29T20:08:58.431Z,101549.53
2023-06-29T20:11:25.676Z,101552.22
2023-06-29T20:13:52.783Z,101557.56
2023-06-29T20:16:20.216Z,101560.31
2023-06-29T20:18:47.333Z,101557.78
2023-06-29T20:21:15.367Z,101564.09
2023-06-29T20:23:42.461Z,101558.78
2023-06-29T20:26:09.644Z,101564.16
2023-06-29T20:28:36.987Z,101565.03
2023-06-29T20:31:04.079Z,101570.50
2023-06-29T20:33:31.133Z,101574.06
2023-06-29T20:35:58.108Z,101579.38
2023-06-29T20:38:25.047Z,101571.41
2023-06-29T20:40:52.118Z,101569.75
2023-06-29T20:43:19.127Z,101570.66
2023-06-29T20:45:46.434Z,101576.06
2023-06-29T20:48:13.989Z,101581.41
2023-06-29T20:50:42.125Z,101589.41
2023-06-29T20:53:09.538Z,101595.59
2023-06-29T20:55:36.487Z,101586.78
2023-06-29T20:58:03.579Z,101599.16
2023-06-29T21:00:30.767Z,101605.44
2023-06-29T21:02:57.846Z,101619.63
2023-06-29T21:05:26.778Z,101618.75
2023-06-29T21:07:54.486Z,101626.72
2023-06-29T21:10:21.636Z,101628.50
2023-06-29T21:12:49.764Z,101637.41
2023-06-29T21:15:17.077Z,101646.25
2023-06-29T21:17:44.075Z,101656.88
2023-06-29T21:20:12.273Z,101662.22
2023-06-29T21:22:40.254Z,101664.00
2023-06-29T21:25:07.502Z,101664.03
2023-06-29T21:27:36.397Z,101672.03
2023-06-29T21:30:03.790Z,101665.84
2023-06-29T21:32:30.883Z,101669.38
2023-06-29T21:34:57.989Z,101668.50
2023-06-29T21:37:25.073Z,101670.31
2023-06-29T21:39:52.274Z,101671.16
2023-06-29T21:42:20.238Z,101676.50
2023-06-29T21:44:47.602Z,101677.34
2023-06-29T21:47:14.634Z,101680.88
2023-06-29T21:49:41.866Z,101680.03
2023-06-29T21:52:09.055Z,101680.91
2023-06-29T21:54:36.378Z,101673.88
2023-06-29T21:57:03.647Z,101677.41
2023-06-29T21:59:30.771Z,101677.38
2023-06-29T22:01:57.999Z,101675.63
2023-06-29T22:04:24.978Z,101675.59
2023-06-29T22:06:59.106Z,101672.06
2023-06-29T22:09:31.964Z,101672.06
2023-06-29T22:11:59.103Z,101677.38
2023-06-29T22:14:27.394Z,101681.78
2023-06-29T22:16:54.529Z,101680.06
2023-06-29T22:19:21.602Z,101693.31
2023-06-29T22:21:48.700Z,101693.28
2023-06-29T22:24:15.819Z,101694.16
2023-06-29T22:26:42.936Z,101687.13
2023-06-29T22:29:10.061Z,101680.06
2023-06-29T22:31:37.143Z,101680.94
2023-06-29T22:34:04.131Z,101680.06
2023-06-29T22:36:31.185Z,101685.38
2023-06-29T22:39:00.299Z,101694.22
2023-06-29T22:41:30.231Z,101696.88
2023-06-29T22:43:58.880Z,101688.06
2023-06-29T22:46:26.617Z,101690.69
2023-06-29T22:48:55.005Z,101694.22
2023-06-29T22:51:25.864Z,101685.44
2023-06-29T22:53:53.264Z,101679.25
2023-06-29T22:56:21.116Z,101675.72
2023-06-29T22:58:48.101Z,101673.94
2023-06-29T23:01:15.988Z,101676.66
2023-06-29T23:03:43.176Z,101677.53
2023-06-29T23:06:10.101Z,101681.94
2023-06-29T23:08:37.147Z,101681.91
2023-06-29T23:11:04.138Z,101685.44
2023-06-29T23:13:31.079Z,101679.28
2023-06-29T23:16:01.191Z,101677.53
2023-06-29T23:18:28.309Z,101677.50
2023-06-29T23:20:56.476Z,101671.38
2023-06-29T23:23:26.460Z,101675.78
2023-06-29T23:25:53.610Z,101675.75
2023-06-29T23:28:20.665Z,101679.28
2023-06-29T23:30:47.727Z,101667.81
2023-06-29T23:33:14.796Z,101660.75
2023-06-29T23:35:41.789Z,101663.41
2023-06-29T23:38:08.767Z,101648.44
2023-06-29T23:40:37.937Z,101649.31
2023-06-29T23:43:08.344Z,101650.19
2023-06-29T23:45:36.768Z,101643.13
2023-06-29T23:48:04.993Z,101654.59
2023-06-29T23:50:32.338Z,101645.75
2023-06-29T23:52:59.334Z,101651.03
2023-06-29T23:55:26.436Z,101651.06
2023-06-29T23:57:53.541Z,101653.72
